sensor_id;sensor_type;location;lat;lon;timestamp;P1;durP1;ratioP1;P2;durP2;ratioP2
37983;SDS011;64625;50.882;4.376;2023-03-12T00:00:56;17.17;;;5.82;;
37983;SDS011;64625;50.882;4.376;2023-03-12T00:03:23;19.63;;;5.55;;
37983;SDS011;64625;50.882;4.376;2023-03-12T00:05:49;12.88;;;5.18;;
37983;SDS011;64625;50.882;4.376;2023-03-12T00:08:15;13.57;;;5.93;;
37983;SDS011;64625;50.882;4.376;2023-03-12T00:10:41;18.73;;;5.32;;
37983;SDS011;64625;50.882;4.376;2023-03-12T00:13:07;13.48;;;5.45;;
37983;SDS011;64625;50.882;4.376;2023-03-12T00:15:36;15.98;;;5.00;;
37983;SDS011;64625;50.882;4.376;2023-03-12T00:18:03;14.98;;;4.90;;
37983;SDS011;64625;50.882;4.376;2023-03-12T00:20:29;12.40;;;3.92;;
37983;SDS011;64625;50.882;4.376;2023-03-12T00:22:55;10.82;;;4.30;;
37983;SDS011;64625;50.882;4.376;2023-03-12T00:25:20;17.95;;;4.25;;
37983;SDS011;64625;50.882;4.376;2023-03-12T00:27:46;8.13;;;4.25;;
37983;SDS011;64625;50.882;4.376;2023-03-12T00:30:13;11.85;;;4.07;;
37983;SDS011;64625;50.882;4.376;2023-03-12T00:32:39;15.32;;;4.60;;
37983;SDS011;64625;50.882;4.376;2023-03-12T00:35:05;12.00;;;4.20;;
37983;SDS011;64625;50.882;4.376;2023-03-12T00:37:32;9.52;;;3.92;;
37983;SDS011;64625;50.882;4.376;2023-03-12T00:39:58;20.90;;;4.38;;
37983;SDS011;64625;50.882;4.376;2023-03-12T00:42:25;15.07;;;4.30;;
37983;SDS011;64625;50.882;4.376;2023-03-12T00:44:52;12.63;;;3.72;;
37983;SDS011;64625;50.882;4.376;2023-03-12T00:47:18;14.13;;;4.18;;
37983;SDS011;64625;50.882;4.376;2023-03-12T00:49:44;15.30;;;4.55;;
37983;SDS011;64625;50.882;4.376;2023-03-12T00:52:10;16.70;;;4.32;;
37983;SDS011;64625;50.882;4.376;2023-03-12T00:54:36;24.20;;;6.70;;
37983;SDS011;64625;50.882;4.376;2023-03-12T00:57:02;7.55;;;4.50;;
37983;SDS011;64625;50.882;4.376;2023-03-12T00:59:27;8.02;;;3.90;;
37983;SDS011;64625;50.882;4.376;2023-03-12T01:01:53;12.40;;;4.50;;
37983;SDS011;64625;50.882;4.376;2023-03-12T01:04:19;15.48;;;3.50;;
37983;SDS011;64625;50.882;4.376;2023-03-12T01:06:46;15.25;;;4.68;;
37983;SDS011;64625;50.882;4.376;2023-03-12T01:09:12;9.95;;;4.03;;
37983;SDS011;64625;50.882;4.376;2023-03-12T01:11:38;7.18;;;3.72;;
37983;SDS011;64625;50.882;4.376;2023-03-12T01:14:04;8.38;;;3.83;;
37983;SDS011;64625;50.882;4.376;2023-03-12T01:16:31;12.73;;;6.05;;
37983;SDS011;64625;50.882;4.376;2023-03-12T01:18:58;16.38;;;3.75;;
37983;SDS011;64625;50.882;4.376;2023-03-12T01:21:25;7.03;;;4.13;;
37983;SDS011;64625;50.882;4.376;2023-03-12T01:23:52;15.77;;;3.05;;
37983;SDS011;64625;50.882;4.376;2023-03-12T01:26:18;12.95;;;3.95;;
37983;SDS011;64625;50.882;4.376;2023-03-12T01:28:44;8.60;;;3.08;;
37983;SDS011;64625;50.882;4.376;2023-03-12T01:31:11;8.57;;;4.00;;
37983;SDS011;64625;50.882;4.376;2023-03-12T01:33:39;6.10;;;2.90;;
37983;SDS011;64625;50.882;4.376;2023-03-12T01:36:05;7.07;;;2.83;;
37983;SDS011;64625;50.882;4.376;2023-03-12T01:39:03;9.77;;;3.28;;
37983;SDS011;64625;50.882;4.376;2023-03-12T01:41:30;8.15;;;2.45;;
37983;SDS011;64625;50.882;4.376;2023-03-12T01:43:57;9.27;;;3.55;;
37983;SDS011;64625;50.882;4.376;2023-03-12T01:49:19;13.48;;;3.40;;
37983;SDS011;64625;50.882;4.376;2023-03-12T01:57:01;11.18;;;3.05;;
37983;SDS011;64625;50.882;4.376;2023-03-12T01:59:34;6.50;;;2.75;;
37983;SDS011;64625;50.882;4.376;2023-03-12T02:02:05;6.13;;;2.65;;
37983;SDS011;64625;50.882;4.376;2023-03-12T02:04:32;12.48;;;3.08;;
37983;SDS011;64625;50.882;4.376;2023-03-12T02:07:06;8.95;;;2.65;;
37983;SDS011;64625;50.882;4.376;2023-03-12T02:09:39;6.60;;;3.22;;
37983;SDS011;64625;50.882;4.376;2023-03-12T02:12:15;21.58;;;2.80;;
37983;SDS011;64625;50.882;4.376;2023-03-12T02:14:42;7.28;;;2.35;;
37983;SDS011;64625;50.882;4.376;2023-03-12T02:17:09;5.40;;;2.72;;
37983;SDS011;64625;50.882;4.376;2023-03-12T02:22:50;17.25;;;3.80;;
37983;SDS011;64625;50.882;4.376;2023-03-12T02:25:36;9.93;;;2.60;;
37983;SDS011;64625;50.882;4.376;2023-03-12T02:28:22;14.10;;;3.53;;
37983;SDS011;64625;50.882;4.376;2023-03-12T02:30:51;5.80;;;2.60;;
37983;SDS011;64625;50.882;4.376;2023-03-12T02:33:21;11.95;;;3.10;;
37983;SDS011;64625;50.882;4.376;2023-03-12T02:35:47;5.03;;;3.13;;
37983;SDS011;64625;50.882;4.376;2023-03-12T02:38:33;4.50;;;2.40;;
37983;SDS011;64625;50.882;4.376;2023-03-12T02:41:25;10.82;;;4.25;;
37983;SDS011;64625;50.882;4.376;2023-03-12T02:43:58;14.93;;;2.67;;
37983;SDS011;64625;50.882;4.376;2023-03-12T02:46:33;12.77;;;3.05;;
37983;SDS011;64625;50.882;4.376;2023-03-12T02:51:29;7.78;;;2.95;;
37983;SDS011;64625;50.882;4.376;2023-03-12T02:53:55;6.10;;;3.25;;
37983;SDS011;64625;50.882;4.376;2023-03-12T02:56:24;14.02;;;3.38;;
37983;SDS011;64625;50.882;4.376;2023-03-12T02:58:51;8.88;;;2.78;;
37983;SDS011;64625;50.882;4.376;2023-03-12T03:01:17;9.02;;;2.13;;
37983;SDS011;64625;50.882;4.376;2023-03-12T03:03:44;8.63;;;3.38;;
37983;SDS011;64625;50.882;4.376;2023-03-12T03:06:10;11.57;;;3.25;;
37983;SDS011;64625;50.882;4.376;2023-03-12T03:08:37;18.15;;;3.40;;
37983;SDS011;64625;50.882;4.376;2023-03-12T03:11:04;11.07;;;2.83;;
37983;SDS011;64625;50.882;4.376;2023-03-12T03:13:32;10.20;;;3.85;;
37983;SDS011;64625;50.882;4.376;2023-03-12T03:15:58;9.63;;;3.30;;
37983;SDS011;64625;50.882;4.376;2023-03-12T03:18:26;15.55;;;2.72;;
37983;SDS011;64625;50.882;4.376;2023-03-12T03:20:57;13.73;;;3.13;;
37983;SDS011;64625;50.882;4.376;2023-03-12T03:23:25;5.70;;;3.22;;
37983;SDS011;64625;50.882;4.376;2023-03-12T03:25:50;12.20;;;4.40;;
37983;SDS011;64625;50.882;4.376;2023-03-12T03:28:17;9.45;;;2.95;;
37983;SDS011;64625;50.882;4.376;2023-03-12T03:30:45;8.55;;;3.30;;
37983;SDS011;64625;50.882;4.376;2023-03-12T03:33:10;6.60;;;2.78;;
37983;SDS011;64625;50.882;4.376;2023-03-12T03:35:37;8.77;;;3.88;;
37983;SDS011;64625;50.882;4.376;2023-03-12T03:38:02;16.85;;;4.10;;
37983;SDS011;64625;50.882;4.376;2023-03-12T03:40:28;8.95;;;3.15;;
37983;SDS011;64625;50.882;4.376;2023-03-12T03:42:55;7.80;;;2.72;;
37983;SDS011;64625;50.882;4.376;2023-03-12T03:45:21;12.48;;;3.33;;
37983;SDS011;64625;50.882;4.376;2023-03-12T03:47:47;9.23;;;2.83;;
37983;SDS011;64625;50.882;4.376;2023-03-12T03:50:12;13.55;;;5.65;;
37983;SDS011;64625;50.882;4.376;2023-03-12T03:52:38;10.55;;;3.30;;
37983;SDS011;64625;50.882;4.376;2023-03-12T03:55:04;11.07;;;3.65;;
37983;SDS011;64625;50.882;4.376;2023-03-12T03:57:30;7.43;;;3.10;;
37983;SDS011;64625;50.882;4.376;2023-03-12T03:59:56;12.63;;;5.35;;
37983;SDS011;64625;50.882;4.376;2023-03-12T04:02:25;10.10;;;3.30;;
37983;SDS011;64625;50.882;4.376;2023-03-12T04:04:52;7.53;;;2.90;;
37983;SDS011;64625;50.882;4.376;2023-03-12T04:07:21;9.45;;;3.67;;
37983;SDS011;64625;50.882;4.376;2023-03-12T04:09:47;15.55;;;4.68;;
37983;SDS011;64625;50.882;4.376;2023-03-12T04:12:13;15.38;;;4.07;;
37983;SDS011;64625;50.882;4.376;2023-03-12T04:14:39;13.25;;;3.95;;
37983;SDS011;64625;50.882;4.376;2023-03-12T04:17:06;11.48;;;3.17;;
37983;SDS011;64625;50.882;4.376;2023-03-12T04:19:32;10.50;;;4.10;;
37983;SDS011;64625;50.882;4.376;2023-03-12T04:21:58;6.72;;;3.85;;
37983;SDS011;64625;50.882;4.376;2023-03-12T04:24:24;14.48;;;4.38;;
37983;SDS011;64625;50.882;4.376;2023-03-12T04:26:50;11.18;;;4.72;;
37983;SDS011;64625;50.882;4.376;2023-03-12T04:29:17;13.80;;;5.10;;
37983;SDS011;64625;50.882;4.376;2023-03-12T04:31:43;11.60;;;4.10;;
37983;SDS011;64625;50.882;4.376;2023-03-12T04:34:10;5.95;;;3.97;;
37983;SDS011;64625;50.882;4.376;2023-03-12T04:36:37;6.32;;;3.67;;
37983;SDS011;64625;50.882;4.376;2023-03-12T04:39:03;13.63;;;4.78;;
37983;SDS011;64625;50.882;4.376;2023-03-12T04:41:33;10.35;;;4.72;;
37983;SDS011;64625;50.882;4.376;2023-03-12T04:43:59;11.15;;;4.60;;
37983;SDS011;64625;50.882;4.376;2023-03-12T04:46:26;12.65;;;5.13;;
37983;SDS011;64625;50.882;4.376;2023-03-12T04:48:51;11.82;;;4.50;;
37983;SDS011;64625;50.882;4.376;2023-03-12T04:51:17;12.27;;;5.07;;
37983;SDS011;64625;50.882;4.376;2023-03-12T04:53:44;12.27;;;3.97;;
37983;SDS011;64625;50.882;4.376;2023-03-12T04:56:10;11.05;;;4.18;;
37983;SDS011;64625;50.882;4.376;2023-03-12T04:58:38;9.57;;;4.85;;
37983;SDS011;64625;50.882;4.376;2023-03-12T05:01:04;7.88;;;4.93;;
37983;SDS011;64625;50.882;4.376;2023-03-12T05:03:30;11.30;;;4.68;;
37983;SDS011;64625;50.882;4.376;2023-03-12T05:05:56;9.60;;;4.50;;
37983;SDS011;64625;50.882;4.376;2023-03-12T05:08:22;13.27;;;5.60;;
37983;SDS011;64625;50.882;4.376;2023-03-12T05:10:48;10.23;;;5.32;;
37983;SDS011;64625;50.882;4.376;2023-03-12T05:13:18;9.43;;;4.55;;
37983;SDS011;64625;50.882;4.376;2023-03-12T05:15:46;12.13;;;4.90;;
37983;SDS011;64625;50.882;4.376;2023-03-12T05:18:15;14.40;;;5.05;;
37983;SDS011;64625;50.882;4.376;2023-03-12T05:20:41;13.50;;;5.45;;
37983;SDS011;64625;50.882;4.376;2023-03-12T05:23:06;16.15;;;5.35;;
37983;SDS011;64625;50.882;4.376;2023-03-12T05:25:32;10.82;;;5.30;;
37983;SDS011;64625;50.882;4.376;2023-03-12T05:27:58;8.98;;;5.93;;
37983;SDS011;64625;50.882;4.376;2023-03-12T05:30:24;11.45;;;5.55;;
37983;SDS011;64625;50.882;4.376;2023-03-12T05:32:50;15.18;;;6.10;;
37983;SDS011;64625;50.882;4.376;2023-03-12T05:35:16;9.75;;;6.50;;
37983;SDS011;64625;50.882;4.376;2023-03-12T05:37:42;11.35;;;6.75;;
37983;SDS011;64625;50.882;4.376;2023-03-12T05:40:09;14.10;;;6.07;;
37983;SDS011;64625;50.882;4.376;2023-03-12T05:42:36;18.33;;;6.55;;
37983;SDS011;64625;50.882;4.376;2023-03-12T05:45:02;11.30;;;5.95;;
37983;SDS011;64625;50.882;4.376;2023-03-12T05:47:29;18.88;;;7.15;;
37983;SDS011;64625;50.882;4.376;2023-03-12T05:49:55;19.80;;;7.82;;
37983;SDS011;64625;50.882;4.376;2023-03-12T05:52:21;15.85;;;7.93;;
37983;SDS011;64625;50.882;4.376;2023-03-12T05:54:47;11.95;;;7.60;;
37983;SDS011;64625;50.882;4.376;2023-03-12T05:57:12;19.20;;;7.80;;
37983;SDS011;64625;50.882;4.376;2023-03-12T05:59:38;19.95;;;7.43;;
37983;SDS011;64625;50.882;4.376;2023-03-12T06:02:04;11.00;;;7.78;;
37983;SDS011;64625;50.882;4.376;2023-03-12T06:04:30;13.55;;;7.57;;
37983;SDS011;64625;50.882;4.376;2023-03-12T06:06:56;15.20;;;7.43;;
37983;SDS011;64625;50.882;4.376;2023-03-12T06:09:22;14.27;;;8.40;;
37983;SDS011;64625;50.882;4.376;2023-03-12T06:11:49;16.23;;;7.50;;
37983;SDS011;64625;50.882;4.376;2023-03-12T06:14:14;16.75;;;8.50;;
37983;SDS011;64625;50.882;4.376;2023-03-12T06:16:40;15.05;;;8.57;;
37983;SDS011;64625;50.882;4.376;2023-03-12T06:19:06;17.05;;;8.95;;
37983;SDS011;64625;50.882;4.376;2023-03-12T06:21:33;15.43;;;9.77;;
37983;SDS011;64625;50.882;4.376;2023-03-12T06:24:00;18.02;;;10.10;;
37983;SDS011;64625;50.882;4.376;2023-03-12T06:26:27;17.30;;;10.20;;
37983;SDS011;64625;50.882;4.376;2023-03-12T06:28:53;13.73;;;9.70;;
37983;SDS011;64625;50.882;4.376;2023-03-12T06:31:22;15.88;;;9.73;;
37983;SDS011;64625;50.882;4.376;2023-03-12T06:33:48;16.42;;;9.38;;
37983;SDS011;64625;50.882;4.376;2023-03-12T06:36:14;16.20;;;8.93;;
37983;SDS011;64625;50.882;4.376;2023-03-12T06:38:40;17.13;;;9.30;;
37983;SDS011;64625;50.882;4.376;2023-03-12T06:41:11;20.05;;;10.35;;
37983;SDS011;64625;50.882;4.376;2023-03-12T06:43:38;17.83;;;10.55;;
37983;SDS011;64625;50.882;4.376;2023-03-12T06:46:06;14.32;;;9.70;;
37983;SDS011;64625;50.882;4.376;2023-03-12T06:48:33;17.48;;;9.65;;
37983;SDS011;64625;50.882;4.376;2023-03-12T06:51:01;16.40;;;10.07;;
37983;SDS011;64625;50.882;4.376;2023-03-12T06:53:28;19.20;;;10.88;;
37983;SDS011;64625;50.882;4.376;2023-03-12T06:55:54;24.80;;;11.55;;
37983;SDS011;64625;50.882;4.376;2023-03-12T06:58:19;16.35;;;10.90;;
37983;SDS011;64625;50.882;4.376;2023-03-12T07:00:45;24.92;;;12.73;;
37983;SDS011;64625;50.882;4.376;2023-03-12T07:03:11;16.67;;;9.77;;
37983;SDS011;64625;50.882;4.376;2023-03-12T07:05:37;21.85;;;12.00;;
37983;SDS011;64625;50.882;4.376;2023-03-12T07:08:03;20.08;;;10.68;;
37983;SDS011;64625;50.882;4.376;2023-03-12T07:10:29;17.90;;;10.35;;
37983;SDS011;64625;50.882;4.376;2023-03-12T07:12:55;17.27;;;11.60;;
37983;SDS011;64625;50.882;4.376;2023-03-12T07:15:24;22.38;;;10.95;;
37983;SDS011;64625;50.882;4.376;2023-03-12T07:17:51;20.25;;;11.75;;
37983;SDS011;64625;50.882;4.376;2023-03-12T07:20:17;20.10;;;12.75;;
37983;SDS011;64625;50.882;4.376;2023-03-12T07:22:43;26.00;;;13.10;;
37983;SDS011;64625;50.882;4.376;2023-03-12T07:25:09;32.25;;;13.45;;
37983;SDS011;64625;50.882;4.376;2023-03-12T07:27:35;27.67;;;13.23;;
37983;SDS011;64625;50.882;4.376;2023-03-12T07:30:01;28.85;;;13.55;;
37983;SDS011;64625;50.882;4.376;2023-03-12T07:32:29;25.48;;;12.77;;
37983;SDS011;64625;50.882;4.376;2023-03-12T07:34:54;26.02;;;13.35;;
37983;SDS011;64625;50.882;4.376;2023-03-12T07:37:20;29.73;;;13.57;;
37983;SDS011;64625;50.882;4.376;2023-03-12T07:39:46;28.52;;;14.07;;
37983;SDS011;64625;50.882;4.376;2023-03-12T07:42:19;24.60;;;14.50;;
37983;SDS011;64625;50.882;4.376;2023-03-12T07:44:45;21.05;;;13.55;;
37983;SDS011;64625;50.882;4.376;2023-03-12T07:47:11;43.67;;;15.43;;
37983;SDS011;64625;50.882;4.376;2023-03-12T07:49:36;31.50;;;13.73;;
37983;SDS011;64625;50.882;4.376;2023-03-12T07:52:06;29.25;;;14.40;;
37983;SDS011;64625;50.882;4.376;2023-03-12T07:54:36;35.80;;;14.15;;
37983;SDS011;64625;50.882;4.376;2023-03-12T07:57:03;43.05;;;16.50;;
37983;SDS011;64625;50.882;4.376;2023-03-12T07:59:29;63.58;;;17.38;;
37983;SDS011;64625;50.882;4.376;2023-03-12T08:01:54;56.55;;;16.20;;
37983;SDS011;64625;50.882;4.376;2023-03-12T08:04:20;55.10;;;17.90;;
37983;SDS011;64625;50.882;4.376;2023-03-12T08:06:46;68.65;;;16.05;;
37983;SDS011;64625;50.882;4.376;2023-03-12T08:09:12;61.13;;;16.85;;
37983;SDS011;64625;50.882;4.376;2023-03-12T08:11:37;69.03;;;16.90;;
37983;SDS011;64625;50.882;4.376;2023-03-12T08:14:03;81.07;;;20.48;;
37983;SDS011;64625;50.882;4.376;2023-03-12T08:16:30;66.13;;;17.55;;
37983;SDS011;64625;50.882;4.376;2023-03-12T08:18:55;89.80;;;21.98;;
37983;SDS011;64625;50.882;4.376;2023-03-12T08:21:21;85.28;;;21.48;;
37983;SDS011;64625;50.882;4.376;2023-03-12T08:23:48;68.63;;;19.98;;
37983;SDS011;64625;50.882;4.376;2023-03-12T08:26:14;77.70;;;20.75;;
37983;SDS011;64625;50.882;4.376;2023-03-12T08:28:39;63.65;;;17.73;;
37983;SDS011;64625;50.882;4.376;2023-03-12T08:31:05;90.68;;;22.02;;
37983;SDS011;64625;50.882;4.376;2023-03-12T08:33:31;113.60;;;29.27;;
37983;SDS011;64625;50.882;4.376;2023-03-12T08:35:58;80.63;;;21.73;;
37983;SDS011;64625;50.882;4.376;2023-03-12T08:38:25;101.20;;;28.52;;
37983;SDS011;64625;50.882;4.376;2023-03-12T08:40:55;113.35;;;21.30;;
37983;SDS011;64625;50.882;4.376;2023-03-12T08:43:22;98.60;;;27.40;;
37983;SDS011;64625;50.882;4.376;2023-03-12T08:45:53;87.70;;;20.75;;
37983;SDS011;64625;50.882;4.376;2023-03-12T08:48:24;105.10;;;22.08;;
37983;SDS011;64625;50.882;4.376;2023-03-12T08:50:57;99.82;;;18.42;;
37983;SDS011;64625;50.882;4.376;2023-03-12T08:53:34;84.93;;;18.50;;
37983;SDS011;64625;50.882;4.376;2023-03-12T08:56:03;108.53;;;17.95;;
37983;SDS011;64625;50.882;4.376;2023-03-12T08:58:32;100.85;;;21.90;;
37983;SDS011;64625;50.882;4.376;2023-03-12T09:00:59;113.55;;;17.67;;
37983;SDS011;64625;50.882;4.376;2023-03-12T09:03:26;87.38;;;16.30;;
37983;SDS011;64625;50.882;4.376;2023-03-12T09:06:02;102.82;;;16.65;;
37983;SDS011;64625;50.882;4.376;2023-03-12T09:08:30;106.40;;;16.13;;
37983;SDS011;64625;50.882;4.376;2023-03-12T09:11:00;82.45;;;15.57;;
37983;SDS011;64625;50.882;4.376;2023-03-12T09:13:26;87.40;;;18.02;;
37983;SDS011;64625;50.882;4.376;2023-03-12T09:15:56;79.82;;;15.15;;
37983;SDS011;64625;50.882;4.376;2023-03-12T09:18:23;100.53;;;17.27;;
37983;SDS011;64625;50.882;4.376;2023-03-12T09:20:49;107.72;;;17.35;;
37983;SDS011;64625;50.882;4.376;2023-03-12T09:23:15;96.82;;;13.30;;
37983;SDS011;64625;50.882;4.376;2023-03-12T09:25:44;76.75;;;12.93;;
37983;SDS011;64625;50.882;4.376;2023-03-12T09:28:10;90.35;;;13.25;;
37983;SDS011;64625;50.882;4.376;2023-03-12T09:30:36;84.68;;;14.27;;
37983;SDS011;64625;50.882;4.376;2023-03-12T09:33:02;74.90;;;14.43;;
37983;SDS011;64625;50.882;4.376;2023-03-12T09:35:28;65.95;;;13.18;;
37983;SDS011;64625;50.882;4.376;2023-03-12T09:37:55;95.65;;;14.02;;
37983;SDS011;64625;50.882;4.376;2023-03-12T09:40:23;67.15;;;14.90;;
37983;SDS011;64625;50.882;4.376;2023-03-12T09:45:23;74.07;;;14.68;;
37983;SDS011;64625;50.882;4.376;2023-03-12T09:47:53;73.85;;;11.25;;
37983;SDS011;64625;50.882;4.376;2023-03-12T09:50:30;91.40;;;11.65;;
37983;SDS011;64625;50.882;4.376;2023-03-12T09:55:56;52.15;;;11.93;;
37983;SDS011;64625;50.882;4.376;2023-03-12T09:58:28;58.47;;;10.60;;
37983;SDS011;64625;50.882;4.376;2023-03-12T10:01:14;68.68;;;11.50;;
37983;SDS011;64625;50.882;4.376;2023-03-12T10:03:54;80.55;;;12.75;;
37983;SDS011;64625;50.882;4.376;2023-03-12T10:06:51;65.68;;;10.73;;
37983;SDS011;64625;50.882;4.376;2023-03-12T10:23:41;73.10;;;11.70;;
37983;SDS011;64625;50.882;4.376;2023-03-12T10:26:23;57.63;;;9.35;;
37983;SDS011;64625;50.882;4.376;2023-03-12T10:29:09;63.75;;;10.55;;
37983;SDS011;64625;50.882;4.376;2023-03-12T10:31:58;65.80;;;9.43;;
37983;SDS011;64625;50.882;4.376;2023-03-12T10:37:11;70.35;;;10.75;;
37983;SDS011;64625;50.882;4.376;2023-03-12T10:39:45;54.72;;;8.38;;
37983;SDS011;64625;50.882;4.376;2023-03-12T10:42:12;65.85;;;10.93;;
37983;SDS011;64625;50.882;4.376;2023-03-12T10:44:45;60.47;;;9.77;;
37983;SDS011;64625;50.882;4.376;2023-03-12T10:52:37;55.03;;;9.43;;
37983;SDS011;64625;50.882;4.376;2023-03-12T10:55:09;73.00;;;11.00;;
37983;SDS011;64625;50.882;4.376;2023-03-12T10:57:47;56.30;;;9.23;;
37983;SDS011;64625;50.882;4.376;2023-03-12T11:00:19;58.33;;;16.02;;
37983;SDS011;64625;50.882;4.376;2023-03-12T11:02:46;52.22;;;11.05;;
37983;SDS011;64625;50.882;4.376;2023-03-12T11:05:21;52.40;;;11.98;;
37983;SDS011;64625;50.882;4.376;2023-03-12T11:07:49;70.82;;;12.55;;
37983;SDS011;64625;50.882;4.376;2023-03-12T11:10:18;55.92;;;9.23;;
37983;SDS011;64625;50.882;4.376;2023-03-12T11:12:52;51.22;;;10.90;;
37983;SDS011;64625;50.882;4.376;2023-03-12T11:15:42;62.40;;;12.32;;
37983;SDS011;64625;50.882;4.376;2023-03-12T11:18:27;44.33;;;9.20;;
37983;SDS011;64625;50.882;4.376;2023-03-12T11:21:11;48.63;;;8.27;;
37983;SDS011;64625;50.882;4.376;2023-03-12T11:23:43;48.10;;;9.00;;
37983;SDS011;64625;50.882;4.376;2023-03-12T11:26:19;63.22;;;8.85;;
37983;SDS011;64625;50.882;4.376;2023-03-12T11:28:50;63.28;;;8.95;;
37983;SDS011;64625;50.882;4.376;2023-03-12T11:31:29;54.97;;;8.20;;
37983;SDS011;64625;50.882;4.376;2023-03-12T11:34:05;57.50;;;10.75;;
37983;SDS011;64625;50.882;4.376;2023-03-12T11:39:21;61.42;;;12.02;;
37983;SDS011;64625;50.882;4.376;2023-03-12T11:53:07;50.03;;;11.57;;
37983;SDS011;64625;50.882;4.376;2023-03-12T11:55:42;69.57;;;13.88;;
37983;SDS011;64625;50.882;4.376;2023-03-12T12:15:09;59.58;;;10.73;;
37983;SDS011;64625;50.882;4.376;2023-03-12T12:18:22;46.00;;;8.38;;
37983;SDS011;64625;50.882;4.376;2023-03-12T12:21:13;57.42;;;11.52;;
37983;SDS011;64625;50.882;4.376;2023-03-12T12:26:55;52.65;;;11.50;;
37983;SDS011;64625;50.882;4.376;2023-03-12T12:29:49;46.50;;;7.80;;
37983;SDS011;64625;50.882;4.376;2023-03-12T12:37:55;50.92;;;6.88;;
37983;SDS011;64625;50.882;4.376;2023-03-12T12:43:01;47.85;;;9.15;;
37983;SDS011;64625;50.882;4.376;2023-03-12T12:45:37;50.30;;;11.93;;
37983;SDS011;64625;50.882;4.376;2023-03-12T12:48:52;50.70;;;10.03;;
37983;SDS011;64625;50.882;4.376;2023-03-12T12:51:04;53.90;;;8.65;;
37983;SDS011;64625;50.882;4.376;2023-03-12T12:56:30;51.58;;;9.25;;
37983;SDS011;64625;50.882;4.376;2023-03-12T13:01:49;47.92;;;12.00;;
37983;SDS011;64625;50.882;4.376;2023-03-12T13:04:38;42.33;;;7.72;;
37983;SDS011;64625;50.882;4.376;2023-03-12T13:09:45;53.23;;;8.53;;
37983;SDS011;64625;50.882;4.376;2023-03-12T13:14:51;54.72;;;9.90;;
37983;SDS011;64625;50.882;4.376;2023-03-12T13:19:56;37.67;;;7.90;;
37983;SDS011;64625;50.882;4.376;2023-03-12T13:31:51;48.08;;;10.65;;
37983;SDS011;64625;50.882;4.376;2023-03-12T13:45:33;44.38;;;10.20;;
37983;SDS011;64625;50.882;4.376;2023-03-12T13:48:11;37.70;;;9.15;;
37983;SDS011;64625;50.882;4.376;2023-03-12T13:50:41;47.60;;;8.10;;
37983;SDS011;64625;50.882;4.376;2023-03-12T13:53:19;45.15;;;8.80;;
37983;SDS011;64625;50.882;4.376;2023-03-12T13:56:10;45.92;;;6.60;;
37983;SDS011;64625;50.882;4.376;2023-03-12T14:01:18;49.20;;;8.68;;
37983;SDS011;64625;50.882;4.376;2023-03-12T14:03:47;51.78;;;8.27;;
37983;SDS011;64625;50.882;4.376;2023-03-12T14:06:17;49.58;;;11.63;;
37983;SDS011;64625;50.882;4.376;2023-03-12T14:12:34;36.53;;;8.77;;
37983;SDS011;64625;50.882;4.376;2023-03-12T14:15:53;50.85;;;9.18;;
37983;SDS011;64625;50.882;4.376;2023-03-12T14:17:44;45.10;;;8.95;;
37983;SDS011;64625;50.882;4.376;2023-03-12T14:20:17;49.30;;;8.90;;
37983;SDS011;64625;50.882;4.376;2023-03-12T14:22:53;52.78;;;7.97;;
37983;SDS011;64625;50.882;4.376;2023-03-12T14:25:40;34.63;;;7.97;;
37983;SDS011;64625;50.882;4.376;2023-03-12T14:28:16;43.65;;;9.15;;
37983;SDS011;64625;50.882;4.376;2023-03-12T14:30:59;46.95;;;8.13;;
37983;SDS011;64625;50.882;4.376;2023-03-12T14:36:28;32.08;;;7.32;;
37983;SDS011;64625;50.882;4.376;2023-03-12T14:39:35;40.17;;;6.07;;
37983;SDS011;64625;50.882;4.376;2023-03-12T14:42:00;30.67;;;7.97;;
37983;SDS011;64625;50.882;4.376;2023-03-12T14:46:58;42.33;;;6.75;;
37983;SDS011;64625;50.882;4.376;2023-03-12T14:49:24;41.97;;;6.57;;
37983;SDS011;64625;50.882;4.376;2023-03-12T14:51:52;25.30;;;5.32;;
37983;SDS011;64625;50.882;4.376;2023-03-12T14:54:18;39.90;;;6.53;;
37983;SDS011;64625;50.882;4.376;2023-03-12T14:56:48;29.93;;;6.60;;
37983;SDS011;64625;50.882;4.376;2023-03-12T14:59:27;37.30;;;6.13;;
37983;SDS011;64625;50.882;4.376;2023-03-12T15:02:00;38.45;;;6.25;;
37983;SDS011;64625;50.882;4.376;2023-03-12T15:04:29;34.00;;;5.90;;
37983;SDS011;64625;50.882;4.376;2023-03-12T15:06:59;39.78;;;6.20;;
37983;SDS011;64625;50.882;4.376;2023-03-12T15:09:29;30.63;;;5.40;;
37983;SDS011;64625;50.882;4.376;2023-03-12T15:12:13;48.13;;;9.98;;
37983;SDS011;64625;50.882;4.376;2023-03-12T15:15:08;33.75;;;5.88;;
37983;SDS011;64625;50.882;4.376;2023-03-12T15:17:47;34.22;;;6.53;;
37983;SDS011;64625;50.882;4.376;2023-03-12T15:20:14;35.25;;;6.38;;
37983;SDS011;64625;50.882;4.376;2023-03-12T15:22:40;31.65;;;5.53;;
37983;SDS011;64625;50.882;4.376;2023-03-12T15:28:04;28.50;;;5.93;;
37983;SDS011;64625;50.882;4.376;2023-03-12T15:30:40;35.67;;;5.38;;
37983;SDS011;64625;50.882;4.376;2023-03-12T15:38:27;36.90;;;6.05;;
37983;SDS011;64625;50.882;4.376;2023-03-12T15:40:56;24.98;;;8.32;;
37983;SDS011;64625;50.882;4.376;2023-03-12T15:43:27;33.35;;;5.97;;
37983;SDS011;64625;50.882;4.376;2023-03-12T15:45:56;38.70;;;5.90;;
37983;SDS011;64625;50.882;4.376;2023-03-12T15:48:30;37.10;;;6.55;;
37983;SDS011;64625;50.882;4.376;2023-03-12T15:51:14;33.83;;;7.20;;
37983;SDS011;64625;50.882;4.376;2023-03-12T15:54:03;33.80;;;7.15;;
37983;SDS011;64625;50.882;4.376;2023-03-12T15:56:38;40.42;;;6.43;;
37983;SDS011;64625;50.882;4.376;2023-03-12T16:02:09;35.60;;;6.68;;
37983;SDS011;64625;50.882;4.376;2023-03-12T16:04:36;39.30;;;7.65;;
37983;SDS011;64625;50.882;4.376;2023-03-12T16:07:02;40.58;;;6.85;;
37983;SDS011;64625;50.882;4.376;2023-03-12T16:09:34;36.55;;;7.63;;
37983;SDS011;64625;50.882;4.376;2023-03-12T16:12:00;41.25;;;7.15;;
37983;SDS011;64625;50.882;4.376;2023-03-12T16:14:26;36.33;;;8.43;;
37983;SDS011;64625;50.882;4.376;2023-03-12T16:16:55;41.58;;;6.13;;
37983;SDS011;64625;50.882;4.376;2023-03-12T16:19:22;51.72;;;8.70;;
37983;SDS011;64625;50.882;4.376;2023-03-12T16:21:48;33.92;;;9.27;;
37983;SDS011;64625;50.882;4.376;2023-03-12T16:24:15;47.45;;;7.57;;
37983;SDS011;64625;50.882;4.376;2023-03-12T16:26:46;42.30;;;8.88;;
37983;SDS011;64625;50.882;4.376;2023-03-12T16:29:15;44.03;;;10.27;;
37983;SDS011;64625;50.882;4.376;2023-03-12T16:31:46;45.10;;;7.20;;
37983;SDS011;64625;50.882;4.376;2023-03-12T16:34:17;44.25;;;7.57;;
37983;SDS011;64625;50.882;4.376;2023-03-12T16:36:43;33.13;;;6.75;;
37983;SDS011;64625;50.882;4.376;2023-03-12T16:39:09;40.13;;;6.88;;
37983;SDS011;64625;50.882;4.376;2023-03-12T16:41:36;35.78;;;7.35;;
37983;SDS011;64625;50.882;4.376;2023-03-12T16:44:02;39.88;;;7.18;;
37983;SDS011;64625;50.882;4.376;2023-03-12T16:46:31;38.50;;;6.22;;
37983;SDS011;64625;50.882;4.376;2023-03-12T16:48:59;55.83;;;9.35;;
37983;SDS011;64625;50.882;4.376;2023-03-12T16:51:25;42.15;;;7.95;;
37983;SDS011;64625;50.882;4.376;2023-03-12T16:53:54;44.83;;;10.38;;
37983;SDS011;64625;50.882;4.376;2023-03-12T16:56:24;41.45;;;7.18;;
37983;SDS011;64625;50.882;4.376;2023-03-12T16:58:52;40.50;;;7.53;;
37983;SDS011;64625;50.882;4.376;2023-03-12T17:01:19;44.53;;;7.78;;
37983;SDS011;64625;50.882;4.376;2023-03-12T17:03:47;32.53;;;6.78;;
37983;SDS011;64625;50.882;4.376;2023-03-12T17:06:19;45.83;;;8.20;;